AirNav   Pilot Hours Calculator
 
 383 users online  

38IN Fuller Field Airport
Brownsburg, Indiana, USA

GOING TO BROWNSBURG?


FAA INFORMATION EFFECTIVE 10 OCTOBER 2019

Location

FAA Identifier: 38IN
Lat/Long: 39-54-07.1510N 086-21-46.9830W
39-54.119183N 086-21.783050W
39.9019864,-86.3630508
(estimated)
Elevation: 910 ft. / 277 m (estimated)
Variation: 02W (1985)
From city: 4 miles NE of BROWNSBURG, IN
Time zone: UTC -4 (UTC -5 during Standard Time)
Zip code: 46112

Airport Operations

Airport use: Private use. Permission required prior to landing
Activation date: 11/1978
Control tower: no
ARTCC: INDIANAPOLIS CENTER
FSS: TERRE HAUTE FLIGHT SERVICE STATION
OR LOCAL CALL 244-3316.
Attendance: UNATNDD
Wind indicator: yes
Segmented circle: no

Airport Communications

WX ASOS at EYE (5 nm SE): 121.575 (317-329-1754)
WX AWOS-3PT at TYQ (9 nm NE): 120.725 (317-769-3154)
WX AWOS-3P at 2R2 (11 nm SW): 118.025 (317-718-4872)
WX ASOS at IND (12 nm S): PHONE 317-241-0348
WX AWOS-3 at 8A4 (13 nm SE): 118.250 (317-955-3160)
WX AWOS-3 at UMP (15 nm E): 119.375 (317-842-3911)

Nearby radio navigation aids

VOR radial/distance  VOR name  Freq  Var
VHPr001/5.2BRICKYARD VORTAC116.3001E
SHBr302/29.6SHELBYVILLE VOR/DME112.0001E

 
NDB name  Hdg/Dist  Freq  Var  ID
METROPOLITAN265/14.633803WUMP ..- -- .--.
CRAWFORDSVILLE105/25.938804WCFJ -.-. ..-. .---

Airport Services

Runway Information

Helipad H1

Dimensions: 90 x 90 ft. / 27 x 27 m
Surface: concrete
Traffic pattern: leftleft

Runway 9/27

Dimensions: 2000 x 125 ft. / 610 x 38 m
Surface: turf
RUNWAY 9  RUNWAY 27
Traffic pattern: rightleft

Airport Ownership and Management from official FAA records

Ownership: Privately-owned
Owner: ESTAN L. FULLER
904 LAKESHORE DR
POLK CITY, FL 33868
Phone (863) 602-9182
Manager: RED CALVERT
8837 LINCOLN CR. CIR.
INDIANAPOLIS, IN 46234
Phone 317-299-6693

Airport Operational Statistics

Aircraft based on the field: 8
Single engine airplanes: 5
Multi engine airplanes: 1
Helicopters: 2
    

Additional Remarks

E111-2 HEL ASP: INGRESS/EGRESS HOP ARE CONDUCTED FROM 110-360 DEGS CLKWS USING PAD AS CENTER OF A COMPASS ROSE.
FOR CD CTC INDIANAPOLIS APCH AT 317-227-5743.

Instrument Procedures

There are no published instrument procedures at 38IN.

Some nearby airports with instrument procedures:

KEYE - Eagle Creek Airpark (5 nm SE)
KTYQ - Indianapolis Executive Airport (9 nm NE)
2R2 - Hendricks County Airport-Gordon Graham Field (11 nm SW)
KIND - Indianapolis International Airport (12 nm S)
8A4 - Indianapolis Downtown Heliport (13 nm SE)
KUMP - Indianapolis Metropolitan Airport (15 nm E)
5I4 - Sheridan Airport (18 nm N)
 
Loc | Ops | Rwys | IFR | FBO | Links
Com | Nav | Svcs | Stats | Notes
Area around 38IN (Fuller Field Airport)
 
Road maps at: MapQuest Bing Google
 
Aerial photo
No photo
 
Sectional chart

 
Airport distance calculator
Flying to Fuller Field Airport? Find the distance to fly.

From to 38IN

Sunrise and sunset
Times for 21-Oct-2019
 Local
(UTC-4)
 Zulu
(UTC)
Morning civil twilight07:3611:36
Sunrise08:0312:03
Sunset18:5722:57
Evening civil twilight19:2423:24

Current date and time
Zulu (UTC)  21-Oct-2019 08:42:45
Local (UTC-4)  21-Oct-2019 04:42:45
 
METAR
KEYE 
5nm SE 
210753Z AUTO 13004KT 10SM CLR 13/11 A2984 RMK AO2 SLP100 T01280106
KTYQ 
9nm NE 
210815Z AUTO 12004KT 10SM SCT060 10/10 A2985 RMK AO2 T01030103
KIND 
12nm S 
210754Z 12008KT 10SM FEW060 12/11 A2983 RMK AO2 SLP100 T01220106
TAF
KIND 
12nm S 
210809Z 2108/2212 12008KT P6SM FEW060 SCT200 FM211300 14012KT P6SM VCSH OVC080 WS020/17040KT FM211500 15014G24KT 2SM SHRA BR OVC020 FM212300 21013KT P6SM VCSH BKN070 FM220200 24011KT P6SM SCT180
NOTAMs
Click for the latest NOTAMs
NOTAMs are issued by the DoD/FAA and will open in a separate window not controlled by AirNav.

 

 
 

Would you like to see your business listed on this page?

 If your business provides an interesting product or service to pilots, flight crews, aircraft, or users of the Fuller Field Airport, you should consider listing it here.  To start the listing process, click on the button below
 
Add a business
 

Other Pages about Fuller Field Airport

Update a link
 
Copyright © AirNav, LLC. All rights reserved. Privacy Policy  Contact